Wiscotta, Iowa
Current Conditions -  °F | °C
As of 6:15 PM on Wednesday 26 Nov 2014 (Local Time) from KPRO Reporting Station
Light Snow Light Snow  
Wind Chill: 16°   Ceiling: 900
Heat Index: 27°   Visibility: 4mi
Dew Point: 26°   Wind: 13mph
Humidity: 95%   Direction: 340°NNW
Pressure: 30.24"   Gusts: NA
Location:  41.5743°N, 94.1829°W
Report Text: KPRO 270015Z AUTO 34011KT 4SM -SN OVC009 M03/M03 A3024 RMK AO2 T10271034
Loading
Personal Weather Stations






























Interactive Weather Map New forecast layout! Learn more

10-Day Weather Forecast

Advertisements
Track Severe Weather on mobile